Shepherd, Michigan
Current Conditions -  °F | °C
As of 3:39 PM on Saturday 25 Oct 2014 (Local Time) from KMOP Reporting Station
Clear Clear  
Wind Chill: 66°   Ceiling: Unl
Heat Index: 66°   Visibility: 10mi
Dew Point: 32°   Wind: 18mph
Humidity: 29%   Direction: 260°W
Pressure: 29.72"   Gusts: 29mph
Location:  43.52°N, 84.69°W
Report Text: KMOP 251939Z AUTO 26016G25KT 10SM CLR 19/00 A2972 RMK AO2 T01870001
Loading
Personal Weather Stations






























Interactive Weather Map
Tropical Storm Tracking
New forecast layout! Learn more

10-Day Weather Forecast

Advertisements
Track Severe Weather on mobile